Time;durP1;ratioP1;P1;durP2;ratioP2;P2;SDS_P1;SDS_P2;PMS_P1;PMS_P2;Temp;Humidity;BMP_temperature;BMP_pressure;BME280_temperature;BME280_humidity;BME280_pressure;Samples;Min_cycle;Max_cycle;Signal;HPM_P1;HPM_P2
2021/12/06 00:00:22;;;;;;;6.80;6.30;;;4.50;81.80;;;;;;5115179;28;20207;-57
2021/12/06 00:02:52;;;;;;;7.65;6.55;;;4.50;82.30;;;;;;5113820;28;20203;-58
2021/12/06 00:05:20;;;;;;;8.13;6.15;;;4.60;82.30;;;;;;5115063;28;20210;-57
2021/12/06 00:07:47;;;;;;;7.90;7.20;;;4.60;81.60;;;;;;5114952;27;20678;-57
2021/12/06 00:10:15;;;;;;;9.00;6.55;;;4.60;81.80;;;;;;5114911;28;20384;-56
2021/12/06 00:12:43;;;;;;;7.07;6.47;;;4.60;81.90;;;;;;5114960;28;20205;-57
2021/12/06 00:15:11;;;;;;;6.82;6.22;;;4.70;82.20;;;;;;5114706;28;20196;-57
2021/12/06 00:17:38;;;;;;;7.20;6.60;;;4.90;82.10;;;;;;5113488;28;20239;-56
2021/12/06 00:20:08;;;;;;;7.03;6.45;;;5.00;81.80;;;;;;5114794;28;20199;-56
2021/12/06 00:22:37;;;;;;;6.70;6.10;;;5.10;81.50;;;;;;5113741;28;20199;-56
2021/12/06 00:25:05;;;;;;;8.48;7.18;;;5.20;81.20;;;;;;5114356;28;20203;-56
2021/12/06 00:27:32;;;;;;;7.25;6.60;;;5.20;81.10;;;;;;5114623;28;20563;-56
2021/12/06 00:29:59;;;;;;;6.80;6.10;;;5.30;80.90;;;;;;5114352;28;20758;-58
2021/12/06 00:32:26;;;;;;;7.90;6.82;;;5.40;80.70;;;;;;5113196;28;20559;-56
2021/12/06 00:34:53;;;;;;;10.65;6.70;;;5.40;80.60;;;;;;5114464;28;20713;-57
2021/12/06 00:37:23;;;;;;;11.43;6.40;;;5.40;80.40;;;;;;5114217;28;20210;-57
2021/12/06 00:39:54;;;;;;;6.40;5.90;;;5.40;79.90;;;;;;5114326;28;20217;-56
2021/12/06 00:42:22;;;;;;;6.22;5.72;;;5.20;80.40;;;;;;5114257;28;20239;-57
2021/12/06 00:44:49;;;;;;;7.80;7.10;;;5.10;80.90;;;;;;5114269;28;20676;-57
2021/12/06 00:47:16;;;;;;;7.28;6.57;;;5.10;81.20;;;;;;5112842;28;20570;-57
2021/12/06 00:49:45;;;;;;;7.40;6.75;;;5.20;81.20;;;;;;5113891;28;20227;-58
2021/12/06 00:52:12;;;;;;;7.40;6.70;;;5.20;81.00;;;;;;5114149;28;20203;-57
2021/12/06 00:54:39;;;;;;;7.45;6.82;;;5.20;80.80;;;;;;5114062;28;20203;-56
2021/12/06 00:57:10;;;;;;;8.43;7.05;;;5.30;80.80;;;;;;5113993;28;20203;-58
2021/12/06 00:59:37;;;;;;;8.00;7.20;;;5.30;80.70;;;;;;5113907;28;20199;-57
2021/12/06 01:02:05;;;;;;;8.18;7.38;;;5.30;80.40;;;;;;5112661;28;20300;-57
2021/12/06 01:04:35;;;;;;;8.60;7.70;;;5.40;80.50;;;;;;5113948;28;20234;-58
2021/12/06 01:07:03;;;;;;;9.00;8.20;;;5.40;80.30;;;;;;5113769;28;20542;-56
2021/12/06 01:09:29;;;;;;;9.05;8.15;;;5.40;80.20;;;;;;5113773;28;20233;-57
2021/12/06 01:11:56;;;;;;;11.65;8.60;;;5.40;80.00;;;;;;5113760;28;20210;-56
2021/12/06 01:14:25;;;;;;;8.85;8.02;;;5.40;79.90;;;;;;5113899;28;20203;-57
2021/12/06 01:16:52;;;;;;;10.05;9.05;;;5.20;80.60;;;;;;5112287;28;20631;-57
2021/12/06 01:19:19;;;;;;;9.43;8.55;;;5.10;81.00;;;;;;5113673;28;20215;-57
2021/12/06 01:21:51;;;;;;;8.95;8.05;;;5.20;81.10;;;;;;5113570;28;20231;-57
2021/12/06 01:24:25;;;;;;;12.27;9.60;;;5.30;81.10;;;;;;5113639;28;20302;-57
2021/12/06 01:29:49;;;;;;;11.55;9.55;;;5.40;80.50;;;;;;5113053;28;20226;-56
2021/12/06 01:32:35;;;;;;;9.18;8.27;;;5.30;80.20;;;;;;5112214;28;20206;-57
2021/12/06 01:40:31;;;;;;;9.25;8.35;;;5.30;80.20;;;;;;5113419;28;20680;-56
2021/12/06 01:42:58;;;;;;;10.27;9.18;;;5.30;80.10;;;;;;5113207;28;20731;-57
2021/12/06 01:45:27;;;;;;;11.20;10.02;;;5.30;79.90;;;;;;5113416;28;20195;-57
2021/12/06 01:47:54;;;;;;;10.85;9.70;;;5.30;79.90;;;;;;5111976;28;20195;-58
2021/12/06 01:50:24;;;;;;;11.40;10.20;;;5.30;79.90;;;;;;5113107;28;20683;-58
2021/12/06 01:52:54;;;;;;;10.95;9.70;;;5.30;79.90;;;;;;5113257;28;20291;-57
2021/12/06 01:55:25;;;;;;;12.38;9.95;;;5.30;79.70;;;;;;5113313;28;20290;-57
2021/12/06 01:57:53;;;;;;;11.52;10.27;;;5.30;79.70;;;;;;5113235;28;20200;-57
2021/12/06 02:00:25;;;;;;;10.57;9.50;;;5.30;79.50;;;;;;5113176;28;20210;-58
2021/12/06 02:02:53;;;;;;;11.30;9.45;;;5.20;79.50;;;;;;5111733;28;20693;-58
2021/12/06 02:05:20;;;;;;;11.20;9.65;;;5.20;79.60;;;;;;5113200;28;20204;-57
2021/12/06 02:07:48;;;;;;;9.70;8.80;;;5.20;79.60;;;;;;5112981;28;20203;-59
2021/12/06 02:10:15;;;;;;;11.07;9.65;;;5.10;79.70;;;;;;5113112;28;20277;-58
2021/12/06 02:12:44;;;;;;;11.25;9.70;;;5.10;79.80;;;;;;5113172;28;20290;-58
2021/12/06 02:15:25;;;;;;;9.90;8.90;;;5.00;80.10;;;;;;5112943;28;20199;-58
2021/12/06 02:18:01;;;;;;;10.52;9.43;;;4.90;80.40;;;;;;5111783;28;20260;-58
2021/12/06 02:20:30;;;;;;;11.68;9.73;;;4.80;81.00;;;;;;5113061;28;20231;-58
2021/12/06 02:22:59;;;;;;;11.57;10.48;;;4.90;81.10;;;;;;5112968;28;20199;-58
2021/12/06 02:25:26;;;;;;;13.23;10.90;;;4.90;81.00;;;;;;5112945;28;20206;-58
2021/12/06 02:27:53;;;;;;;12.18;10.48;;;5.00;80.80;;;;;;5112773;28;20649;-58
2021/12/06 02:30:21;;;;;;;11.68;10.50;;;5.00;80.40;;;;;;5112906;28;20231;-59
2021/12/06 02:32:49;;;;;;;15.02;11.18;;;5.00;80.30;;;;;;5111624;28;20213;-58
2021/12/06 02:35:21;;;;;;;14.02;10.95;;;5.00;80.20;;;;;;5112888;28;20653;-58
2021/12/06 02:37:49;;;;;;;12.45;11.25;;;5.00;80.10;;;;;;5112791;28;20637;-58
2021/12/06 02:40:20;;;;;;;13.55;10.80;;;5.00;80.00;;;;;;5112751;28;20214;-58
2021/12/06 02:42:47;;;;;;;12.93;10.60;;;5.00;80.00;;;;;;5112709;28;20241;-58
2021/12/06 02:45:16;;;;;;;12.20;10.23;;;5.10;80.00;;;;;;5112901;28;20282;-58
2021/12/06 02:47:43;;;;;;;12.05;10.75;;;5.00;79.90;;;;;;5114429;28;20207;-56
2021/12/06 02:50:12;;;;;;;11.75;10.48;;;5.00;80.00;;;;;;5116463;28;20709;-57
2021/12/06 02:52:41;;;;;;;12.48;11.18;;;5.00;80.00;;;;;;5116416;28;20291;-56
2021/12/06 02:55:25;;;;;;;12.57;10.98;;;5.10;80.00;;;;;;5116380;28;20633;-58
2021/12/06 02:57:57;;;;;;;13.60;12.05;;;5.00;80.00;;;;;;5116466;28;20595;-58
2021/12/06 03:00:24;;;;;;;14.75;12.13;;;5.00;80.00;;;;;;5116356;28;20207;-58
2021/12/06 03:02:51;;;;;;;14.00;12.10;;;5.00;79.90;;;;;;5115223;28;20290;-56
2021/12/06 03:05:18;;;;;;;18.73;12.00;;;5.00;79.90;;;;;;5116214;28;20271;-56
2021/12/06 03:07:49;;;;;;;15.60;12.27;;;5.00;79.90;;;;;;5116231;28;20290;-57
2021/12/06 03:10:18;;;;;;;12.40;11.05;;;5.00;79.90;;;;;;5115978;28;20651;-58
2021/12/06 03:12:45;;;;;;;17.30;13.25;;;5.00;79.90;;;;;;5116142;28;20199;-57
2021/12/06 03:15:16;;;;;;;18.45;13.18;;;4.90;80.00;;;;;;5116051;28;20576;-58
2021/12/06 03:17:42;;;;;;;17.50;14.18;;;4.90;80.00;;;;;;5114636;28;20200;-57
2021/12/06 03:20:13;;;;;;;18.85;13.90;;;4.90;80.10;;;;;;5115931;27;20199;-57
2021/12/06 03:22:41;;;;;;;24.05;15.32;;;4.90;80.20;;;;;;5115801;28;20240;-57
2021/12/06 03:25:09;;;;;;;20.25;14.20;;;4.90;80.20;;;;;;5115957;28;20208;-57
2021/12/06 03:27:36;;;;;;;16.48;12.68;;;4.80;80.10;;;;;;5115701;28;20225;-59
2021/12/06 03:30:05;;;;;;;19.40;14.10;;;4.80;80.30;;;;;;5115669;28;20227;-56
2021/12/06 03:32:34;;;;;;;16.05;12.05;;;4.80;80.40;;;;;;5114268;28;20221;-58
2021/12/06 03:35:01;;;;;;;15.30;11.45;;;4.80;80.50;;;;;;5115766;28;20572;-58
2021/12/06 03:37:28;;;;;;;15.38;12.43;;;4.80;80.60;;;;;;5115657;28;20206;-56
2021/12/06 03:39:55;;;;;;;15.00;12.05;;;4.80;80.60;;;;;;5115619;28;20210;-59
2021/12/06 03:42:23;;;;;;;14.70;11.70;;;4.80;80.70;;;;;;5115413;28;20239;-58
2021/12/06 03:44:51;;;;;;;15.60;11.85;;;4.80;80.70;;;;;;5115418;28;20203;-56
2021/12/06 03:47:22;;;;;;;16.50;12.80;;;4.70;81.10;;;;;;5114181;28;20199;-57
2021/12/06 03:49:51;;;;;;;16.38;13.25;;;4.80;81.10;;;;;;5115305;28;20237;-57
2021/12/06 03:52:18;;;;;;;18.55;13.45;;;4.80;81.00;;;;;;5115290;28;20207;-56
2021/12/06 03:54:46;;;;;;;20.50;13.68;;;4.80;81.00;;;;;;5115257;28;20203;-56
2021/12/06 03:57:14;;;;;;;25.33;16.80;;;4.80;80.90;;;;;;5115027;28;20608;-56
2021/12/06 03:59:41;;;;;;;23.65;16.70;;;4.70;81.40;;;;;;5115068;28;20196;-57
2021/12/06 04:02:08;;;;;;;26.10;16.63;;;4.70;81.40;;;;;;5113819;28;20671;-56
2021/12/06 04:04:35;;;;;;;20.77;15.30;;;4.70;81.40;;;;;;5115121;28;20203;-56
2021/12/06 04:07:06;;;;;;;23.00;15.30;;;4.70;81.50;;;;;;5115052;28;20200;-56
2021/12/06 04:09:33;;;;;;;20.52;14.15;;;4.70;81.50;;;;;;5114997;28;20564;-56
2021/12/06 04:11:59;;;;;;;26.25;17.05;;;4.70;81.40;;;;;;5114811;28;20195;-56
2021/12/06 04:14:26;;;;;;;28.77;16.98;;;4.70;81.80;;;;;;5114956;28;20294;-57
2021/12/06 04:16:53;;;;;;;27.83;18.02;;;4.70;81.60;;;;;;5113555;28;20196;-56
2021/12/06 04:19:20;;;;;;;27.20;17.70;;;4.70;81.70;;;;;;5114926;28;20205;-57
2021/12/06 04:21:48;;;;;;;25.67;17.20;;;4.70;81.90;;;;;;5114817;28;20209;-56
2021/12/06 04:24:17;;;;;;;30.85;19.23;;;4.60;82.50;;;;;;5114800;28;20203;-56
2021/12/06 04:26:44;;;;;;;30.40;19.83;;;4.60;82.50;;;;;;5114499;28;20760;-57
2021/12/06 04:29:12;;;;;;;28.40;18.50;;;4.60;82.70;;;;;;5114644;28;20254;-59
2021/12/06 04:31:41;;;;;;;31.02;19.73;;;4.60;82.50;;;;;;5113187;28;20584;-56
2021/12/06 04:34:08;;;;;;;33.20;20.00;;;4.60;82.30;;;;;;5114636;28;20205;-57
2021/12/06 04:36:35;;;;;;;31.60;20.05;;;4.70;82.20;;;;;;5114468;28;20199;-57
2021/12/06 04:39:02;;;;;;;25.75;17.70;;;4.70;82.10;;;;;;5114338;28;20202;-57
2021/12/06 04:41:31;;;;;;;28.58;17.80;;;4.60;82.10;;;;;;5114362;28;20301;-56
2021/12/06 04:43:57;;;;;;;27.38;17.50;;;4.60;82.10;;;;;;5114199;28;20330;-57
2021/12/06 04:46:24;;;;;;;30.70;19.83;;;4.60;82.30;;;;;;5113024;28;20203;-57
2021/12/06 04:48:51;;;;;;;30.23;18.63;;;4.60;82.50;;;;;;5114259;28;20200;-56
2021/12/06 04:51:19;;;;;;;31.42;19.10;;;4.70;82.30;;;;;;5114069;28;20807;-56
2021/12/06 04:53:47;;;;;;;30.88;19.20;;;4.60;82.60;;;;;;5114021;28;20628;-57
2021/12/06 04:56:19;;;;;;;30.35;17.90;;;4.70;82.50;;;;;;5114225;28;20207;-56
2021/12/06 04:58:52;;;;;;;30.88;18.10;;;4.70;82.50;;;;;;5114089;28;20206;-58
2021/12/06 05:01:24;;;;;;;34.10;19.25;;;4.70;82.50;;;;;;5111185;28;20516;-59
2021/12/06 05:03:52;;;;;;;32.20;19.08;;;4.70;82.50;;;;;;5113967;28;20200;-58
2021/12/06 05:06:22;;;;;;;27.88;15.05;;;4.60;83.20;;;;;;5113782;28;20204;-58
2021/12/06 05:08:51;;;;;;;29.17;17.50;;;4.60;83.10;;;;;;5113412;27;20665;-58
2021/12/06 05:11:20;;;;;;;28.20;17.35;;;4.60;83.60;;;;;;5113837;28;20326;-60
2021/12/06 05:13:51;;;;;;;28.25;16.30;;;4.60;83.40;;;;;;5113796;28;20673;-58
2021/12/06 05:16:18;;;;;;;29.60;16.60;;;4.60;83.30;;;;;;5112361;28;20302;-58
2021/12/06 05:18:45;;;;;;;31.08;18.58;;;4.50;84.00;;;;;;5113524;28;20292;-58
2021/12/06 05:21:13;;;;;;;28.88;17.25;;;4.60;83.80;;;;;;5113778;28;20295;-58
2021/12/06 05:23:40;;;;;;;28.88;18.55;;;4.70;83.50;;;;;;5113606;28;20294;-58
2021/12/06 05:26:07;;;;;;;29.10;16.67;;;4.70;83.40;;;;;;5113630;28;20281;-58
2021/12/06 05:28:40;;;;;;;30.73;16.35;;;4.80;83.10;;;;;;5113465;28;20229;-58
2021/12/06 05:31:14;;;;;;;27.85;16.95;;;4.80;83.10;;;;;;5112101;28;20231;-56
2021/12/06 05:33:42;;;;;;;28.52;16.75;;;4.80;82.90;;;;;;5113506;28;20202;-56
2021/12/06 05:36:10;;;;;;;29.50;18.05;;;4.80;82.70;;;;;;5113414;28;20200;-56
2021/12/06 05:38:37;;;;;;;35.08;19.38;;;4.90;82.60;;;;;;5113415;28;20288;-57
2021/12/06 05:41:06;;;;;;;25.45;16.65;;;4.90;82.40;;;;;;5113344;28;20203;-56
2021/12/06 05:43:34;;;;;;;25.13;16.77;;;4.80;82.40;;;;;;5113231;28;20237;-57
2021/12/06 05:46:01;;;;;;;23.02;15.75;;;4.70;82.80;;;;;;5112317;28;20290;-57
2021/12/06 05:48:29;;;;;;;26.13;16.52;;;4.70;82.90;;;;;;5113282;28;20209;-57
2021/12/06 05:50:56;;;;;;;28.35;16.98;;;4.70;83.00;;;;;;5113266;28;20237;-57
2021/12/06 05:53:23;;;;;;;27.98;16.77;;;4.70;82.80;;;;;;5113276;28;20226;-58
2021/12/06 05:55:51;;;;;;;23.63;15.50;;;4.80;82.70;;;;;;5113212;28;20294;-56
2021/12/06 05:58:26;;;;;;;26.75;16.95;;;4.80;82.60;;;;;;5113161;28;20210;-57
2021/12/06 06:00:53;;;;;;;26.95;15.50;;;4.80;82.50;;;;;;5113144;28;20248;-56
2021/12/06 06:03:21;;;;;;;24.83;14.77;;;4.70;82.70;;;;;;5111735;28;20286;-56
2021/12/06 06:05:49;;;;;;;23.27;14.40;;;4.70;82.70;;;;;;5113207;28;20203;-58
2021/12/06 06:08:16;;;;;;;25.60;15.10;;;4.70;82.70;;;;;;5113210;28;20208;-57
2021/12/06 06:10:45;;;;;;;22.60;14.60;;;4.70;82.70;;;;;;5113057;28;20235;-57
2021/12/06 06:13:12;;;;;;;22.25;13.90;;;4.70;82.60;;;;;;5112985;28;20203;-56
2021/12/06 06:15:39;;;;;;;23.05;15.13;;;4.70;82.50;;;;;;5113100;28;20242;-56
2021/12/06 06:18:07;;;;;;;21.08;14.23;;;4.60;82.50;;;;;;5111651;28;20579;-56
2021/12/06 06:20:37;;;;;;;25.27;15.35;;;4.60;82.60;;;;;;5114201;28;20203;-56
2021/12/06 06:23:06;;;;;;;26.63;16.77;;;4.60;82.80;;;;;;5117053;28;20199;-56
2021/12/06 06:25:33;;;;;;;26.45;14.98;;;4.70;82.70;;;;;;5116843;28;20297;-59
2021/12/06 06:28:00;;;;;;;20.45;13.32;;;4.70;82.70;;;;;;5116997;28;20230;-57
2021/12/06 06:30:28;;;;;;;28.25;16.45;;;4.60;82.80;;;;;;5116831;28;20658;-57
2021/12/06 06:32:55;;;;;;;26.70;14.63;;;4.70;82.80;;;;;;5115349;28;20199;-57
2021/12/06 06:35:22;;;;;;;30.80;16.50;;;4.60;82.50;;;;;;5116940;28;20200;-57
2021/12/06 06:37:50;;;;;;;24.17;15.43;;;4.60;82.60;;;;;;5116693;28;20674;-57
2021/12/06 06:40:19;;;;;;;25.60;15.38;;;4.60;82.60;;;;;;5116533;28;20581;-57
2021/12/06 06:42:46;;;;;;;23.77;15.48;;;4.50;82.90;;;;;;5116656;28;20694;-57
2021/12/06 06:45:16;;;;;;;25.83;14.90;;;4.50;83.00;;;;;;5116587;28;20205;-57
2021/12/06 06:47:44;;;;;;;25.63;15.38;;;4.60;83.10;;;;;;5115320;28;20203;-57
2021/12/06 06:50:11;;;;;;;28.58;16.48;;;4.60;83.10;;;;;;5116394;28;20669;-57
2021/12/06 06:52:38;;;;;;;25.90;15.25;;;4.60;83.40;;;;;;5116214;28;20708;-57
2021/12/06 06:55:09;;;;;;;29.13;16.58;;;4.60;83.40;;;;;;5116321;28;20210;-56
2021/12/06 06:57:39;;;;;;;28.40;16.45;;;4.60;83.40;;;;;;5116279;28;20627;-58
2021/12/06 07:00:07;;;;;;;25.13;15.70;;;4.70;83.30;;;;;;5116341;28;20203;-58
2021/12/06 07:02:34;;;;;;;28.58;16.45;;;4.70;83.10;;;;;;5114965;28;20214;-56
2021/12/06 07:05:01;;;;;;;30.27;16.95;;;4.60;83.20;;;;;;5116256;28;20203;-56
2021/12/06 07:07:28;;;;;;;24.10;14.38;;;4.60;83.60;;;;;;5116026;28;20287;-56
2021/12/06 07:09:54;;;;;;;26.35;15.75;;;4.50;83.70;;;;;;5116095;28;20628;-56
2021/12/06 07:12:21;;;;;;;28.40;16.45;;;4.50;83.70;;;;;;5115985;28;20229;-57
2021/12/06 07:14:49;;;;;;;23.27;15.02;;;4.50;83.70;;;;;;5116053;28;20650;-57
2021/12/06 07:17:17;;;;;;;24.05;13.98;;;4.50;83.60;;;;;;5114722;28;20221;-57
2021/12/06 07:19:44;;;;;;;25.05;15.10;;;4.30;84.30;;;;;;5115774;28;20199;-57
2021/12/06 07:22:12;;;;;;;26.10;14.70;;;4.40;84.50;;;;;;5115867;28;20699;-57
2021/12/06 07:24:40;;;;;;;26.80;15.52;;;4.50;84.40;;;;;;5115815;28;20264;-57
2021/12/06 07:27:07;;;;;;;27.85;15.60;;;4.50;84.10;;;;;;5115654;28;20690;-57
2021/12/06 07:29:35;;;;;;;25.10;15.45;;;4.50;84.10;;;;;;5115720;28;20195;-57
2021/12/06 07:32:05;;;;;;;31.13;16.38;;;4.50;84.10;;;;;;5113530;28;20227;-57
2021/12/06 07:34:32;;;;;;;25.75;14.02;;;4.40;84.50;;;;;;5115627;28;20565;-57
2021/12/06 07:36:59;;;;;;;31.70;16.63;;;4.30;84.50;;;;;;5115547;28;20210;-57
2021/12/06 07:39:26;;;;;;;24.80;14.82;;;4.40;84.60;;;;;;5115498;28;20290;-56
2021/12/06 07:41:53;;;;;;;26.98;15.77;;;4.40;84.50;;;;;;5115571;28;20210;-57
2021/12/06 07:44:20;;;;;;;28.65;15.90;;;4.50;84.10;;;;;;5115269;28;20266;-56
2021/12/06 07:46:47;;;;;;;25.65;15.32;;;4.60;83.90;;;;;;5114019;28;20302;-56
2021/12/06 07:49:15;;;;;;;26.30;15.40;;;4.60;83.80;;;;;;5115318;28;20200;-56
2021/12/06 07:51:42;;;;;;;28.80;16.13;;;4.70;83.70;;;;;;5115246;28;20227;-56
2021/12/06 07:54:09;;;;;;;24.50;14.45;;;4.70;83.50;;;;;;5115333;28;20286;-56
2021/12/06 07:56:36;;;;;;;26.40;14.98;;;4.70;83.50;;;;;;5115276;28;20283;-58
2021/12/06 07:59:03;;;;;;;23.35;14.18;;;4.40;84.30;;;;;;5115186;28;20538;-58
2021/12/06 08:01:30;;;;;;;27.80;14.10;;;4.00;85.50;;;;;;5113642;28;20199;-58
2021/12/06 08:03:58;;;;;;;27.98;15.00;;;3.90;86.30;;;;;;5115089;28;20295;-58
2021/12/06 08:06:27;;;;;;;23.95;13.85;;;4.00;86.20;;;;;;5115002;28;20289;-58
2021/12/06 08:08:54;;;;;;;26.73;15.00;;;4.10;86.00;;;;;;5114988;28;20630;-58
2021/12/06 08:11:21;;;;;;;25.38;14.52;;;4.20;85.90;;;;;;5114873;28;20223;-56
2021/12/06 08:13:53;;;;;;;26.75;14.93;;;4.30;85.50;;;;;;5114981;28;20203;-57
2021/12/06 08:16:26;;;;;;;27.70;15.10;;;4.50;85.00;;;;;;5113468;28;20300;-56
2021/12/06 08:18:52;;;;;;;25.77;14.55;;;4.40;84.40;;;;;;5114628;28;20321;-56
2021/12/06 08:21:21;;;;;;;29.52;15.43;;;4.30;85.00;;;;;;5114718;28;20207;-56
2021/12/06 08:23:51;;;;;;;26.33;15.15;;;4.40;85.20;;;;;;5114567;28;20199;-57
2021/12/06 08:26:20;;;;;;;24.63;13.93;;;4.50;84.70;;;;;;5114560;28;20331;-57
2021/12/06 08:28:49;;;;;;;26.77;13.30;;;4.50;84.70;;;;;;5114555;28;20280;-57
2021/12/06 08:31:18;;;;;;;26.52;14.25;;;4.60;84.40;;;;;;5113175;28;20645;-56
2021/12/06 08:33:47;;;;;;;27.50;14.68;;;4.70;84.30;;;;;;5114453;28;20203;-56
2021/12/06 08:36:14;;;;;;;23.58;14.48;;;4.70;84.20;;;;;;5114485;28;20204;-56
2021/12/06 08:38:42;;;;;;;28.90;14.55;;;4.80;84.10;;;;;;5114319;28;20204;-57
2021/12/06 08:41:16;;;;;;;28.23;15.68;;;4.80;84.00;;;;;;5114177;28;20199;-57
2021/12/06 08:43:45;;;;;;;26.25;14.95;;;4.80;83.90;;;;;;5113515;28;20253;-57
2021/12/06 08:46:16;;;;;;;23.10;12.73;;;4.80;84.00;;;;;;5112826;28;20234;-57
2021/12/06 08:48:45;;;;;;;27.30;15.02;;;4.80;84.10;;;;;;5114235;28;20521;-59
2021/12/06 08:51:16;;;;;;;23.50;12.65;;;4.70;83.80;;;;;;5114124;28;20203;-56
2021/12/06 08:53:44;;;;;;;21.40;13.45;;;4.80;84.10;;;;;;5114003;28;20214;-58
2021/12/06 08:56:12;;;;;;;21.98;12.32;;;4.60;83.80;;;;;;5113991;28;20225;-57
2021/12/06 08:58:40;;;;;;;21.95;12.27;;;4.30;85.10;;;;;;5113972;28;20199;-59
2021/12/06 09:01:10;;;;;;;21.35;11.93;;;4.00;85.70;;;;;;5112541;28;20285;-57
2021/12/06 09:03:37;;;;;;;24.80;13.75;;;3.90;86.90;;;;;;5113901;28;20203;-57
2021/12/06 09:06:07;;;;;;;22.73;13.50;;;3.80;87.20;;;;;;5113843;28;20199;-56
2021/12/06 09:08:36;;;;;;;20.50;11.90;;;3.80;87.00;;;;;;5113834;28;20568;-57
2021/12/06 09:11:05;;;;;;;24.30;13.27;;;3.70;87.30;;;;;;5113826;28;20301;-57
2021/12/06 09:13:33;;;;;;;18.40;10.88;;;3.60;88.30;;;;;;5099604;28;20223;-56
2021/12/06 09:16:04;;;;;;;18.25;11.25;;;3.80;88.50;;;;;;5092892;28;20210;-58
2021/12/06 09:18:34;;;;;;;19.67;10.20;;;4.10;87.90;;;;;;5095991;28;20198;-57
2021/12/06 09:21:03;;;;;;;20.08;11.50;;;4.30;87.20;;;;;;5112674;28;20339;-57
2021/12/06 09:23:30;;;;;;;14.02;9.43;;;4.40;87.00;;;;;;5112979;28;20202;-58
2021/12/06 09:25:57;;;;;;;18.35;10.30;;;4.60;86.70;;;;;;5112720;28;20224;-55
2021/12/06 09:28:27;;;;;;;15.27;9.73;;;4.60;85.90;;;;;;5112867;28;20202;-57
2021/12/06 09:30:56;;;;;;;15.43;9.98;;;4.40;85.50;;;;;;5112602;28;20192;-56
2021/12/06 09:33:24;;;;;;;17.52;11.02;;;4.40;85.80;;;;;;5111145;28;20230;-57
2021/12/06 09:35:54;;;;;;;17.38;11.43;;;4.60;86.40;;;;;;5112534;28;20239;-55
2021/12/06 09:38:26;;;;;;;16.25;10.35;;;4.80;86.20;;;;;;5112579;28;20204;-59
2021/12/06 09:40:56;;;;;;;16.48;9.77;;;4.80;85.60;;;;;;5112284;28;20199;-56
2021/12/06 09:43:24;;;;;;;17.88;10.95;;;5.00;85.80;;;;;;5112543;28;20231;-56
2021/12/06 09:45:53;;;;;;;16.48;10.90;;;5.10;85.50;;;;;;5112250;28;20326;-55
2021/12/06 09:48:22;;;;;;;16.05;10.55;;;5.30;85.20;;;;;;5111255;28;20303;-57
2021/12/06 09:50:52;;;;;;;15.65;9.75;;;5.20;84.10;;;;;;5112311;28;20620;-56
2021/12/06 09:53:22;;;;;;;17.88;10.95;;;5.30;84.90;;;;;;5112374;28;20590;-56
2021/12/06 09:55:52;;;;;;;17.77;11.00;;;5.50;84.60;;;;;;5112147;28;20203;-56
2021/12/06 09:58:19;;;;;;;19.08;11.85;;;5.60;84.10;;;;;;5112162;28;20290;-56
2021/12/06 10:00:49;;;;;;;17.58;11.38;;;5.70;83.40;;;;;;5112155;28;20206;-57
2021/12/06 10:03:22;;;;;;;17.83;11.65;;;5.60;82.40;;;;;;5110911;28;20658;-56
2021/12/06 10:05:51;;;;;;;16.30;11.32;;;5.50;83.00;;;;;;5112416;28;20475;-56
2021/12/06 10:08:18;;;;;;;17.15;10.40;;;5.60;83.30;;;;;;5111980;28;20335;-57
2021/12/06 10:10:45;;;;;;;17.38;10.93;;;5.70;82.90;;;;;;5112362;28;20199;-56
2021/12/06 10:13:12;;;;;;;16.30;10.52;;;5.60;82.10;;;;;;5112068;28;20231;-57
2021/12/06 10:15:41;;;;;;;17.50;10.90;;;5.60;82.20;;;;;;5112248;28;20200;-59
2021/12/06 10:18:09;;;;;;;16.13;9.50;;;5.50;82.40;;;;;;5110949;28;20199;-56
2021/12/06 10:20:37;;;;;;;15.30;10.50;;;5.60;82.40;;;;;;5112011;28;20203;-55
2021/12/06 10:23:05;;;;;;;14.10;9.30;;;5.70;82.30;;;;;;5112858;28;20210;-55
2021/12/06 10:25:38;;;;;;;15.68;9.82;;;5.70;82.20;;;;;;5112710;28;20312;-56
2021/12/06 10:28:06;;;;;;;10.85;7.82;;;5.70;81.90;;;;;;5112740;28;20301;-56
2021/12/06 10:30:36;;;;;;;15.30;10.30;;;5.80;81.70;;;;;;5112760;28;20612;-57
2021/12/06 10:33:06;;;;;;;14.95;8.80;;;5.80;81.10;;;;;;5111406;28;20234;-56
2021/12/06 10:35:34;;;;;;;15.00;9.85;;;5.50;79.50;;;;;;5112823;28;20241;-57
2021/12/06 10:38:01;;;;;;;17.45;9.82;;;5.30;80.70;;;;;;5112746;28;20214;-58
2021/12/06 10:40:32;;;;;;;13.00;9.55;;;5.30;81.50;;;;;;5112850;28;20238;-57
2021/12/06 10:43:01;;;;;;;14.55;9.88;;;5.20;80.90;;;;;;5112674;28;20235;-57
2021/12/06 10:45:33;;;;;;;14.40;10.05;;;4.80;82.00;;;;;;5112788;28;20204;-57
2021/12/06 10:48:10;;;;;;;13.57;8.80;;;4.60;83.30;;;;;;5111309;28;20293;-57
2021/12/06 10:50:38;;;;;;;11.88;9.10;;;4.60;83.10;;;;;;5112702;28;20294;-56
2021/12/06 10:53:06;;;;;;;14.75;8.65;;;4.30;83.40;;;;;;5112570;28;20322;-58
2021/12/06 10:55:35;;;;;;;10.60;7.82;;;4.10;83.80;;;;;;5112574;28;20253;-58
2021/12/06 10:58:05;;;;;;;12.00;8.85;;;4.00;83.40;;;;;;5112683;28;20214;-57
2021/12/06 11:00:40;;;;;;;11.55;8.20;;;4.10;84.00;;;;;;5112630;28;20749;-57
2021/12/06 11:03:29;;;;;;;11.52;8.57;;;4.40;84.60;;;;;;5111141;28;20199;-58
2021/12/06 11:06:01;;;;;;;13.30;8.57;;;4.70;83.20;;;;;;5112662;28;20203;-58
2021/12/06 11:08:29;;;;;;;11.15;8.10;;;4.90;82.20;;;;;;5115042;28;20267;-56
2021/12/06 11:10:59;;;;;;;12.18;8.10;;;4.70;80.70;;;;;;5116093;28;20199;-57
2021/12/06 11:13:28;;;;;;;10.35;8.70;;;4.60;81.90;;;;;;5115927;28;20255;-56
2021/12/06 11:16:08;;;;;;;9.73;7.97;;;4.50;81.40;;;;;;5104387;28;20303;-57
2021/12/06 11:18:40;;;;;;;8.35;6.70;;;4.40;81.00;;;;;;5095705;28;20673;-57
2021/12/06 11:21:19;;;;;;;10.45;8.00;;;4.20;80.10;;;;;;5098555;28;20576;-57
2021/12/06 11:24:15;;;;;;;11.15;7.60;;;4.10;82.20;;;;;;5114976;28;20298;-56
2021/12/06 11:26:46;;;;;;;10.00;7.90;;;4.30;82.20;;;;;;5115169;28;20741;-56
2021/12/06 11:29:18;;;;;;;9.07;7.93;;;4.30;81.00;;;;;;5115080;27;20712;-56
2021/12/06 11:31:54;;;;;;;8.70;6.75;;;4.40;80.80;;;;;;5114548;28;20239;-56
2021/12/06 11:34:25;;;;;;;9.25;7.90;;;4.60;82.00;;;;;;5115662;28;20203;-56
2021/12/06 11:36:52;;;;;;;10.00;7.80;;;5.00;82.20;;;;;;5115813;28;20223;-56
2021/12/06 11:39:21;;;;;;;7.78;7.00;;;5.10;80.30;;;;;;5115576;28;20621;-55
2021/12/06 11:41:53;;;;;;;8.93;8.13;;;5.10;79.50;;;;;;5115593;28;20287;-56
2021/12/06 11:44:24;;;;;;;9.70;7.80;;;5.00;79.60;;;;;;5115427;28;20322;-56
2021/12/06 11:47:07;;;;;;;10.63;8.40;;;5.00;79.70;;;;;;5114118;28;20205;-56
2021/12/06 11:49:42;;;;;;;10.27;7.20;;;5.00;80.10;;;;;;5115361;28;20203;-56
2021/12/06 11:52:14;;;;;;;10.80;7.68;;;5.30;80.70;;;;;;5115330;28;20623;-56
2021/12/06 11:54:45;;;;;;;11.52;8.57;;;5.60;80.80;;;;;;5115196;28;20206;-56
2021/12/06 11:57:16;;;;;;;11.65;8.35;;;5.70;79.10;;;;;;5115238;28;20245;-56
2021/12/06 11:59:50;;;;;;;8.90;7.88;;;5.90;79.30;;;;;;5115054;28;20624;-56
2021/12/06 12:02:28;;;;;;;9.82;7.20;;;6.10;79.00;;;;;;5113823;28;20654;-56
2021/12/06 12:05:09;;;;;;;8.45;7.65;;;6.30;79.40;;;;;;5115094;28;20729;-56
2021/12/06 12:07:58;;;;;;;10.13;8.07;;;6.50;77.90;;;;;;5114858;28;20703;-55
2021/12/06 12:10:35;;;;;;;11.30;7.40;;;6.60;76.90;;;;;;5115112;28;20208;-57
2021/12/06 12:13:04;;;;;;;7.90;7.20;;;6.60;75.50;;;;;;5114877;28;20241;-56
2021/12/06 12:15:31;;;;;;;10.18;8.38;;;6.40;75.00;;;;;;5114953;28;20294;-55
2021/12/06 12:17:58;;;;;;;8.57;7.80;;;6.40;75.30;;;;;;5113305;28;20199;-58
2021/12/06 12:20:26;;;;;;;8.40;7.60;;;6.40;76.90;;;;;;5114662;28;20817;-55
2021/12/06 12:22:57;;;;;;;8.07;7.28;;;6.40;76.60;;;;;;5114805;28;20276;-57
2021/12/06 12:25:30;;;;;;;7.40;6.80;;;6.50;76.90;;;;;;5114659;28;20237;-57
2021/12/06 12:28:05;;;;;;;8.95;8.23;;;6.50;76.60;;;;;;5114557;28;20651;-57
2021/12/06 12:30:35;;;;;;;7.10;6.50;;;6.20;73.90;;;;;;5114480;28;20203;-57
2021/12/06 12:33:04;;;;;;;8.73;7.93;;;6.20;76.20;;;;;;5113172;28;20281;-56
2021/12/06 12:35:32;;;;;;;8.57;7.68;;;6.20;76.40;;;;;;5114338;28;20203;-57
2021/12/06 12:38:01;;;;;;;8.95;8.02;;;6.30;77.10;;;;;;5114489;28;20570;-57
2021/12/06 12:40:38;;;;;;;8.75;7.85;;;6.40;77.10;;;;;;5114431;28;20529;-56
2021/12/06 12:43:07;;;;;;;7.80;7.00;;;6.30;74.10;;;;;;5114127;28;20701;-57
2021/12/06 12:45:38;;;;;;;8.52;7.65;;;6.20;76.30;;;;;;5114209;28;20291;-56
2021/12/06 12:48:05;;;;;;;8.80;7.88;;;6.10;75.40;;;;;;5112867;28;20199;-57
2021/12/06 12:50:32;;;;;;;10.73;7.78;;;6.10;76.20;;;;;;5114089;28;20286;-57
2021/12/06 12:53:07;;;;;;;9.10;8.30;;;6.20;76.50;;;;;;5113846;28;20314;-56
2021/12/06 12:55:36;;;;;;;9.07;8.18;;;6.40;76.70;;;;;;5113796;28;20241;-56
2021/12/06 12:58:08;;;;;;;8.30;7.30;;;6.50;76.30;;;;;;5113895;28;20206;-57
2021/12/06 13:00:46;;;;;;;9.20;8.30;;;6.50;75.20;;;;;;5113937;28;20203;-56